Wetterstation Vettwei-Soller: Standort 50 43' 54" Nord - 6 33' 24" Ost
Wetterdaten: aktuell Sonntag, 26.05.2019 11:00
Datum Zeit Temp. A. Temp. A. min Temp. A. max Feuchte A. Luftdruck Regen Wind Richtung Richtung Sonnenschein Zeit Regen ET UV Solar Taupunkt Windchill Windben
26.05.2019 11:00 20,1 C 19,4 C 20,1 C 52 % 1016,3 hPa 0,0 l/m 7,4 km/h (2 Bft) SW 221 15 min 0 min 0,407 mm 5,0 UV-I 700 W/m 9,9 C 20,1 C 16,1 km/h (3 Bft)
26.05.2019 10:45 19,6 C 19,1 C 19,6 C 56 % 1016,4 hPa 0,0 l/m 6,2 km/h (2 Bft) W-NW 300 15 min 0 min 0,000 mm 4,7 UV-I 691 W/m 10,6 C 19,6 C 20,9 km/h (4 Bft)
26.05.2019 10:30 19,1 C 18,7 C 19,1 C 56 % 1016,5 hPa 0,0 l/m 7,7 km/h (2 Bft) W 279 15 min 0 min 0,000 mm 4,2 UV-I 633 W/m 10,1 C 19,1 C 19,3 km/h (3 Bft)
26.05.2019 10:15 18,8 C 18,8 C 19,1 C 58 % 1016,6 hPa 0,0 l/m 7,8 km/h (2 Bft) W-SW 242 15 min 0 min 0,000 mm 3,9 UV-I 640 W/m 10,4 C 18,8 C 19,3 km/h (3 Bft)
26.05.2019 10:00 19,0 C 18,2 C 19,0 C 58 % 1016,7 hPa 0,0 l/m 5,5 km/h (1 Bft) NW 324 15 min 0 min 0,254 mm 3,3 UV-I 552 W/m 10,5 C 19,0 C 16,1 km/h (3 Bft)
26.05.2019 09:45 18,2 C 17,9 C 18,2 C 60 % 1016,6 hPa 0,0 l/m 6,2 km/h (2 Bft) W-SW 252 15 min 0 min 0,000 mm 2,6 UV-I 362 W/m 10,3 C 18,2 C 24,1 km/h (4 Bft)
26.05.2019 09:30 17,9 C 16,8 C 17,9 C 66 % 1016,6 hPa 0,0 l/m 4,5 km/h (1 Bft) S-SW 211 15 min 0 min 0,000 mm 2,5 UV-I 434 W/m 11,5 C 17,9 C 12,9 km/h (3 Bft)
26.05.2019 09:15 16,8 C 15,9 C 16,8 C 70 % 1016,6 hPa 0,0 l/m 3,9 km/h (1 Bft) SW 216 15 min 0 min 0,000 mm 2,3 UV-I 392 W/m 11,3 C 16,8 C 9,7 km/h (2 Bft)
26.05.2019 09:00 15,9 C 15,4 C 15,9 C 70 % 1016,6 hPa 0,0 l/m 4,7 km/h (1 Bft) S-SW 192 15 min 0 min 0,152 mm 1,6 UV-I 285 W/m 10,4 C 15,9 C 12,9 km/h (3 Bft)
26.05.2019 08:45 15,4 C 14,7 C 15,4 C 72 % 1016,6 hPa 0,0 l/m 5,1 km/h (1 Bft) W-SW 252 15 min 0 min 0,000 mm 1,4 UV-I 316 W/m 10,4 C 15,4 C 12,9 km/h (3 Bft)
26.05.2019 08:30 14,8 C 14,2 C 14,8 C 73 % 1016,6 hPa 0,0 l/m 5,9 km/h (2 Bft) S 170 15 min 0 min 0,000 mm 1,1 UV-I 260 W/m 10,0 C 14,8 C 16,1 km/h (3 Bft)
26.05.2019 08:15 14,2 C 13,4 C 14,2 C 74 % 1016,6 hPa 0,0 l/m 6,7 km/h (2 Bft) S 191 15 min 0 min 0,102 mm 0,9 UV-I 218 W/m 9,6 C 14,2 C 14,5 km/h (3 Bft)
26.05.2019 08:00 13,4 C 12,6 C 13,4 C 76 % 1016,9 hPa 0,0 l/m 5,5 km/h (1 Bft) S 188 15 min 0 min 0,000 mm 0,7 UV-I 294 W/m 9,3 C 13,4 C 12,9 km/h (3 Bft)
26.05.2019 07:45 12,6 C 12,0 C 12,6 C 78 % 1016,9 hPa 0,0 l/m 5,2 km/h (1 Bft) S 190 0 min 0 min 0,000 mm 0,5 UV-I 169 W/m 8,9 C 12,6 C 11,3 km/h (2 Bft)
26.05.2019 07:30 12,0 C 11,8 C 12,0 C 80 % 1017,0 hPa 0,0 l/m 4,5 km/h (1 Bft) SW 221 15 min 0 min 0,000 mm 0,0 UV-I 155 W/m 8,7 C 12,0 C 11,3 km/h (2 Bft)
26.05.2019 07:15 11,8 C 11,5 C 11,9 C 80 % 1017,0 hPa 0,0 l/m 6,8 km/h (2 Bft) S-SW 192 0 min 0 min 0,000 mm 0,0 UV-I 102 W/m 8,5 C 11,8 C 12,9 km/h (3 Bft)
26.05.2019 07:00 11,5 C 11,3 C 11,5 C 81 % 1017,1 hPa 0,0 l/m 6,8 km/h (2 Bft) SW 220 0 min 0 min 0,050 mm 0,0 UV-I 86 W/m 8,4 C 11,5 C 12,9 km/h (3 Bft)
26.05.2019 06:45 11,3 C 11,0 C 11,3 C 82 % 1017,1 hPa 0,0 l/m 6,5 km/h (2 Bft) SW 217 0 min 0 min 0,000 mm 0,0 UV-I 67 W/m 8,3 C 11,3 C 11,3 km/h (2 Bft)
26.05.2019 06:30 11,1 C 11,0 C 11,1 C 82 % 1017,1 hPa 0,0 l/m 5,8 km/h (2 Bft) SW 215 0 min 0 min 0,000 mm 0,0 UV-I 51 W/m 8,1 C 11,1 C 11,3 km/h (2 Bft)
26.05.2019 06:15 11,0 C 10,8 C 11,0 C 82 % 1017,2 hPa 0,0 l/m 4,1 km/h (1 Bft) S-SW 200 0 min 0 min 0,000 mm 0,0 UV-I 44 W/m 8,0 C 11,0 C 9,7 km/h (2 Bft)
26.05.2019 06:00 10,8 C 10,1 C 10,8 C 82 % 1017,3 hPa 0,0 l/m 2,4 km/h (1 Bft) S-SW 195 0 min 0 min 0,000 mm 0,0 UV-I 23 W/m 7,9 C 10,8 C 9,7 km/h (2 Bft)
26.05.2019 05:45 10,2 C 10,1 C 10,2 C 86 % 1017,3 hPa 0,0 l/m 1,6 km/h (1 Bft) S 186 0 min 0 min 0,000 mm 0,0 UV-I 11 W/m 8,0 C 10,2 C 4,8 km/h (1 Bft)
26.05.2019 05:30 10,2 C 10,2 C 10,3 C 87 % 1017,3 hPa 0,0 l/m 1,1 km/h (1 Bft) S-SW 213 0 min 0 min 0,000 mm 0,0 UV-I 0 W/m 8,1 C 10,2 C 4,8 km/h (1 Bft)
26.05.2019 05:15 10,2 C 10,2 C 10,6 C 88 % 1017,3 hPa 0,0 l/m 1,2 km/h (1 Bft) S-SW 209 0 min 0 min 0,000 mm 0,0 UV-I 0 W/m 8,3 C 10,2 C 6,4 km/h (2 Bft)
26.05.2019 05:00 10,6 C 10,6 C 10,9 C 88 % 1017,4 hPa 0,0 l/m 3,8 km/h (1 Bft) S-SW 200 0 min 0 min 0,000 mm 0,0 UV-I 0 W/m 8,7 C 10,6 C 8,0 km/h (2 Bft)
26.05.2019 04:45 10,9 C 10,8 C 10,9 C 88 % 1017,5 hPa 0,0 l/m 1,9 km/h (1 Bft) SW 219 0 min 0 min 0,000 mm 0,0 UV-I 0 W/m 9,0 C 10,9 C 6,4 km/h (2 Bft)
26.05.2019 04:30 10,9 C 10,8 C 10,9 C 88 % 1017,7 hPa 0,0 l/m 3,7 km/h (1 Bft) W-SW 254 0 min 0 min 0,000 mm 0,0 UV-I 0 W/m 9,0 C 10,9 C 11,3 km/h (2 Bft)
26.05.2019 04:15 10,8 C 10,7 C 10,8 C 88 % 1017,7 hPa 0,0 l/m 3,7 km/h (1 Bft) W 261 0 min 0 min 0,000 mm 0,0 UV-I 0 W/m 8,9 C 10,8 C 9,7 km/h (2 Bft)
26.05.2019 04:00 10,8 C 10,7 C 10,8 C 87 % 1017,7 hPa 0,0 l/m 2,8 km/h (1 Bft) W-SW 252 0 min 0 min 0,026 mm 0,0 UV-I 0 W/m 8,7 C 10,8 C 8,0 km/h (2 Bft)
26.05.2019 03:45 10,8 C 10,8 C 11,0 C 86 % 1017,8 hPa 0,0 l/m 2,5 km/h (1 Bft) W-SW 252 0 min 0 min 0,000 mm 0,0 UV-I 0 W/m 8,6 C 10,8 C 6,4 km/h (2 Bft)
26.05.2019 03:30 11,0 C 11,0 C 11,1 C 85 % 1017,7 hPa 0,0 l/m 3,2 km/h (1 Bft) W 273 0 min 0 min 0,000 mm 0,0 UV-I 0 W/m 8,6 C 11,0 C 8,0 km/h (2 Bft)
26.05.2019 03:15 11,1 C 11,0 C 11,2 C 84 % 1017,7 hPa 0,0 l/m 2,4 km/h (1 Bft) W 261 0 min 0 min 0,025 mm 0,0 UV-I 0 W/m 8,5 C 11,1 C 6,4 km/h (2 Bft)
26.05.2019 03:00 11,1 C 10,9 C 11,1 C 84 % 1017,7 hPa 0,0 l/m 2,8 km/h (1 Bft) W-SW 239 0 min 0 min 0,000 mm 0,0 UV-I 0 W/m 8,5 C 11,1 C 8,0 km/h (2 Bft)
26.05.2019 02:45 10,9 C 10,7 C 10,9 C 85 % 1017,8 hPa 0,0 l/m 2,9 km/h (1 Bft) S-SW 207 0 min 0 min 0,000 mm 0,0 UV-I 0 W/m 8,5 C 10,9 C 8,0 km/h (2 Bft)
26.05.2019 02:30 10,7 C 10,5 C 10,7 C 85 % 1018,0 hPa 0,0 l/m 2,6 km/h (1 Bft) SW 235 0 min 0 min 0,001 mm 0,0 UV-I 0 W/m 8,3 C 10,7 C 6,4 km/h (2 Bft)
26.05.2019 02:15 10,5 C 10,5 C 10,9 C 84 % 1018,0 hPa 0,0 l/m 2,8 km/h (1 Bft) W-SW 248 0 min 0 min 0,025 mm 0,0 UV-I 0 W/m 7,9 C 10,5 C 6,4 km/h (2 Bft)
26.05.2019 02:00 10,8 C 10,8 C 11,1 C 83 % 1018,1 hPa 0,0 l/m 2,6 km/h (1 Bft) W-SW 238 0 min 0 min 0,000 mm 0,0 UV-I 0 W/m 8,0 C 10,8 C 6,4 km/h (2 Bft)
26.05.2019 01:45 11,1 C 10,9 C 11,1 C 82 % 1018,1 hPa 0,0 l/m 2,6 km/h (1 Bft) S-SW 200 0 min 0 min 0,000 mm 0,0 UV-I 0 W/m 8,1 C 11,1 C 6,4 km/h (2 Bft)
26.05.2019 01:30 10,9 C 10,9 C 11,2 C 82 % 1018,2 hPa 0,0 l/m 1,6 km/h (1 Bft) W-SW 247 0 min 0 min 0,000 mm 0,0 UV-I 0 W/m 7,9 C 10,9 C 4,8 km/h (1 Bft)
26.05.2019 01:15 11,2 C 11,1 C 11,2 C 82 % 1018,2 hPa 0,0 l/m 2,2 km/h (1 Bft) W-SW 240 0 min 0 min 0,000 mm 0,0 UV-I 0 W/m 8,2 C 11,2 C 6,4 km/h (2 Bft)
26.05.2019 01:00 11,1 C 10,8 C 11,1 C 82 % 1018,4 hPa 0,0 l/m 2,6 km/h (1 Bft) W-SW 245 0 min 0 min 0,025 mm 0,0 UV-I 0 W/m 8,1 C 11,1 C 6,4 km/h (2 Bft)
26.05.2019 00:45 10,8 C 10,7 C 10,9 C 83 % 1018,4 hPa 0,0 l/m 3,1 km/h (1 Bft) W-SW 255 0 min 0 min 0,000 mm 0,0 UV-I 0 W/m 8,0 C 10,8 C 6,4 km/h (2 Bft)
26.05.2019 00:30 10,9 C 10,9 C 11,2 C 82 % 1018,6 hPa 0,0 l/m 2,2 km/h (1 Bft) W 267 0 min 0 min 0,000 mm 0,0 UV-I 0 W/m 7,9 C 10,9 C 4,8 km/h (1 Bft)
26.05.2019 00:15 11,2 C 11,1 C 11,4 C 81 % 1018,6 hPa 0,0 l/m 1,5 km/h (1 Bft) W-SW 240 0 min 0 min 0,000 mm 0,0 UV-I 0 W/m 8,1 C 11,2 C 3,2 km/h (1 Bft)
26.05.2019 00:00 11,4 C 11,4 C 11,4 C 80 % 1018,6 hPa 0,0 l/m 2,0 km/h (1 Bft) W-SW 242 0 min 0 min 0,000 mm 0,0 UV-I 0 W/m 8,1 C 11,4 C 4,8 km/h (1 Bft)
25.05.2019 23:45 11,4 C 11,4 C 11,6 C 80 % 1018,7 hPa 0,0 l/m 2,9 km/h (1 Bft) W-SW 254 0 min 0 min 0,000 mm 0,0 UV-I 0 W/m 8,1 C 11,4 C 4,8 km/h (1 Bft)
25.05.2019 23:30 11,6 C 11,6 C 11,8 C 79 % 1018,7 hPa 0,0 l/m 2,3 km/h (1 Bft) W-SW 244 0 min 0 min 0,000 mm 0,0 UV-I 0 W/m 8,1 C 11,6 C 6,4 km/h (2 Bft)
25.05.2019 23:15 11,8 C 11,8 C 12,1 C 79 % 1018,7 hPa 0,0 l/m 2,7 km/h (1 Bft) W-SW 251 0 min 0 min 0,025 mm 0,0 UV-I 0 W/m 8,3 C 11,8 C 6,4 km/h (2 Bft)
25.05.2019 23:00 12,0 C 11,9 C 12,1 C 79 % 1018,6 hPa 0,0 l/m 2,0 km/h (1 Bft) W-SW 247 0 min 0 min 0,000 mm 0,0 UV-I 0 W/m 8,5 C 12,0 C 4,8 km/h (1 Bft)
25.05.2019 22:45 12,1 C 12,0 C 12,4 C 79 % 1018,7 hPa 0,0 l/m 1,5 km/h (1 Bft) W-SW 244 0 min 0 min 0,000 mm 0,0 UV-I 0 W/m 8,6 C 12,1 C 4,8 km/h (1 Bft)
25.05.2019 22:30 12,4 C 12,4 C 12,8 C 79 % 1018,6 hPa 0,0 l/m 1,0 km/h (0 Bft) W 260 0 min 0 min 0,001 mm 0,0 UV-I 0 W/m 8,9 C 12,4 C 3,2 km/h (1 Bft)
25.05.2019 22:15 12,8 C 12,8 C 13,6 C 77 % 1018,6 hPa 0,0 l/m 1,2 km/h (1 Bft) W 260 0 min 0 min 0,025 mm 0,0 UV-I 0 W/m 8,9 C 12,8 C 4,8 km/h (1 Bft)
25.05.2019 22:00 13,6 C 13,6 C 14,2 C 75 % 1018,5 hPa 0,0 l/m 3,2 km/h (1 Bft) W 260 0 min 0 min 0,000 mm 0,0 UV-I 0 W/m 9,3 C 13,6 C 4,8 km/h (1 Bft)
25.05.2019 21:45 14,2 C 14,2 C 15,3 C 73 % 1018,5 hPa 0,0 l/m 2,2 km/h (1 Bft) W 261 0 min 0 min 0,000 mm 0,0 UV-I 0 W/m 9,4 C 14,2 C 4,8 km/h (1 Bft)
25.05.2019 21:30 15,3 C 15,3 C 16,1 C 68 % 1018,0 hPa 0,0 l/m 1,6 km/h (1 Bft) W 262 0 min 0 min 0,000 mm 0,0 UV-I 0 W/m 9,4 C 15,3 C 4,8 km/h (1 Bft)
25.05.2019 21:15 16,1 C 16,1 C 16,6 C 65 % 1017,9 hPa 0,0 l/m 2,2 km/h (1 Bft) W-SW 250 0 min 0 min 0,050 mm 0,0 UV-I 7 W/m 9,5 C 16,1 C 4,8 km/h (1 Bft)
25.05.2019 21:00 16,6 C 16,6 C 16,6 C 62 % 1017,9 hPa 0,0 l/m 1,5 km/h (1 Bft) W 271 0 min 0 min 0,000 mm 0,0 UV-I 25 W/m 9,3 C 16,6 C 3,2 km/h (1 Bft)
25.05.2019 20:45 16,6 C 16,5 C 16,6 C 62 % 1017,8 hPa 0,0 l/m 1,9 km/h (1 Bft) W-NW 284 0 min 0 min 0,000 mm 0,0 UV-I 39 W/m 9,3 C 16,6 C 6,4 km/h (2 Bft)
25.05.2019 20:30 16,6 C 16,6 C 16,8 C 62 % 1017,9 hPa 0,0 l/m 2,0 km/h (1 Bft) W 261 0 min 0 min 0,000 mm 0,0 UV-I 39 W/m 9,3 C 16,6 C 6,4 km/h (2 Bft)
25.05.2019 20:15 16,8 C 16,8 C 16,9 C 62 % 1017,9 hPa 0,0 l/m 3,1 km/h (1 Bft) N-NW 342 0 min 0 min 0,051 mm 0,0 UV-I 46 W/m 9,5 C 16,8 C 9,7 km/h (2 Bft)
25.05.2019 20:00 16,9 C 16,9 C 17,1 C 61 % 1017,9 hPa 0,0 l/m 2,9 km/h (1 Bft) NW 317 0 min 0 min 0,000 mm 0,0 UV-I 54 W/m 9,3 C 16,9 C 8,0 km/h (2 Bft)
25.05.2019 19:45 17,1 C 16,9 C 17,1 C 62 % 1017,8 hPa 0,0 l/m 2,7 km/h (1 Bft) NW 307 0 min 0 min 0,000 mm 0,0 UV-I 60 W/m 9,8 C 17,1 C 8,0 km/h (2 Bft)
25.05.2019 19:30 17,1 C 17,1 C 17,3 C 61 % 1017,8 hPa 0,0 l/m 3,4 km/h (1 Bft) NW 309 0 min 0 min 0,000 mm 0,0 UV-I 67 W/m 9,5 C 17,1 C 9,7 km/h (2 Bft)
25.05.2019 19:15 17,2 C 17,2 C 17,5 C 61 % 1017,7 hPa 0,0 l/m 4,3 km/h (1 Bft) W-NW 294 0 min 0 min 0,102 mm 0,0 UV-I 74 W/m 9,6 C 17,2 C 11,3 km/h (2 Bft)
25.05.2019 19:00 17,4 C 17,4 C 17,7 C 59 % 1017,7 hPa 0,0 l/m 4,5 km/h (1 Bft) W-NW 299 0 min 0 min 0,000 mm 0,5 UV-I 107 W/m 9,3 C 17,4 C 12,9 km/h (3 Bft)
25.05.2019 18:45 17,7 C 17,6 C 17,9 C 59 % 1017,7 hPa 0,0 l/m 3,8 km/h (1 Bft) NW 306 0 min 0 min 0,000 mm 0,6 UV-I 130 W/m 9,6 C 17,7 C 12,9 km/h (3 Bft)
25.05.2019 18:30 17,6 C 17,4 C 17,7 C 59 % 1017,7 hPa 0,0 l/m 4,2 km/h (1 Bft) W-SW 253 0 min 0 min 0,000 mm 0,6 UV-I 135 W/m 9,5 C 17,6 C 12,9 km/h (3 Bft)
25.05.2019 18:15 17,6 C 17,6 C 17,8 C 59 % 1017,7 hPa 0,0 l/m 4,8 km/h (1 Bft) NW 324 0 min 0 min 0,000 mm 0,6 UV-I 135 W/m 9,5 C 17,6 C 12,9 km/h (3 Bft)
25.05.2019 18:00 17,6 C 17,6 C 17,8 C 60 % 1017,8 hPa 0,0 l/m 5,6 km/h (1 Bft) W-SW 252 0 min 0 min 0,127 mm 0,8 UV-I 144 W/m 9,7 C 17,6 C 17,7 km/h (3 Bft)
25.05.2019 17:45 17,8 C 17,7 C 17,9 C 60 % 1017,9 hPa 0,0 l/m 5,8 km/h (2 Bft) NW 306 0 min 0 min 0,000 mm 1,0 UV-I 155 W/m 9,9 C 17,8 C 16,1 km/h (3 Bft)
25.05.2019 17:30 17,9 C 17,9 C 18,2 C 56 % 1017,9 hPa 0,0 l/m 6,1 km/h (2 Bft) N-NW 338 0 min 0 min 0,000 mm 1,1 UV-I 132 W/m 9,0 C 17,9 C 17,7 km/h (3 Bft)
25.05.2019 17:15 18,1 C 18,1 C 18,4 C 56 % 1017,9 hPa 0,0 l/m 5,2 km/h (1 Bft) NW 318 0 min 0 min 0,178 mm 1,4 UV-I 165 W/m 9,2 C 18,1 C 17,7 km/h (3 Bft)
25.05.2019 17:00 18,4 C 18,4 C 19,0 C 53 % 1017,8 hPa 0,0 l/m 6,9 km/h (2 Bft) NW 310 0 min 0 min 0,000 mm 1,6 UV-I 151 W/m 8,6 C 18,4 C 17,7 km/h (3 Bft)
25.05.2019 16:45 18,6 C 17,7 C 18,7 C 56 % 1017,7 hPa 0,0 l/m 5,3 km/h (1 Bft) NW 323 15 min 0 min 0,000 mm 2,4 UV-I 413 W/m 9,6 C 18,6 C 16,1 km/h (3 Bft)
25.05.2019 16:30 17,7 C 17,7 C 17,9 C 59 % 1017,8 hPa 0,0 l/m 5,6 km/h (1 Bft) W 275 0 min 0 min 0,000 mm 1,9 UV-I 308 W/m 9,6 C 17,7 C 14,5 km/h (3 Bft)
25.05.2019 16:15 17,9 C 17,9 C 18,2 C 58 % 1017,9 hPa 0,0 l/m 7,7 km/h (2 Bft) W-NW 290 0 min 0 min 0,177 mm 1,0 UV-I 155 W/m 9,5 C 17,9 C 19,3 km/h (3 Bft)
25.05.2019 16:00 18,1 C 17,9 C 18,1 C 61 % 1017,9 hPa 0,0 l/m 7,2 km/h (2 Bft) N-NW 337 0 min 0 min 0,000 mm 1,4 UV-I 193 W/m 10,5 C 18,1 C 17,7 km/h (3 Bft)
25.05.2019 15:45 17,9 C 17,8 C 18,2 C 60 % 1018,0 hPa 0,0 l/m 6,7 km/h (2 Bft) N-NW 329 0 min 0 min 0,000 mm 2,0 UV-I 258 W/m 10,0 C 17,9 C 16,1 km/h (3 Bft)
25.05.2019 15:30 17,8 C 17,8 C 18,6 C 60 % 1018,0 hPa 0,0 l/m 5,1 km/h (1 Bft) N 351 0 min 0 min 0,000 mm 1,9 UV-I 237 W/m 9,9 C 17,8 C 16,1 km/h (3 Bft)
25.05.2019 15:15 18,6 C 18,5 C 19,0 C 56 % 1018,1 hPa 0,0 l/m 6,0 km/h (2 Bft) NW 317 0 min 0 min 0,483 mm 1,9 UV-I 190 W/m 9,6 C 18,6 C 17,7 km/h (3 Bft)
25.05.2019 15:00 19,0 C 18,9 C 19,4 C 53 % 1018,1 hPa 0,0 l/m 9,4 km/h (2 Bft) N-NW 340 0 min 0 min 0,000 mm 3,2 UV-I 257 W/m 9,2 C 19,0 C 22,5 km/h (4 Bft)
25.05.2019 14:45 18,9 C 18,7 C 19,4 C 53 % 1018,2 hPa 0,0 l/m 11,4 km/h (2 Bft) W-NW 294 15 min 0 min 0,000 mm 5,9 UV-I 826 W/m 9,1 C 18,9 C 24,1 km/h (4 Bft)
25.05.2019 14:30 18,7 C 18,6 C 19,2 C 54 % 1018,3 hPa 0,0 l/m 9,3 km/h (2 Bft) N-NW 344 15 min 0 min 0,000 mm 6,1 UV-I 817 W/m 9,2 C 18,7 C 19,3 km/h (3 Bft)
25.05.2019 14:15 19,2 C 18,6 C 19,2 C 54 % 1018,6 hPa 0,0 l/m 7,5 km/h (2 Bft) W-SW 242 15 min 0 min 0,457 mm 6,0 UV-I 782 W/m 9,7 C 19,2 C 19,3 km/h (3 Bft)
25.05.2019 14:00 18,9 C 18,3 C 18,9 C 53 % 1018,5 hPa 0,0 l/m 7,9 km/h (2 Bft) N-NW 348 15 min 0 min 0,000 mm 6,1 UV-I 828 W/m 9,1 C 18,9 C 20,9 km/h (4 Bft)
25.05.2019 13:45 18,3 C 18,1 C 18,6 C 54 % 1018,6 hPa 0,0 l/m 7,2 km/h (2 Bft) N-NW 333 15 min 0 min 0,000 mm 6,1 UV-I 800 W/m 8,8 C 18,3 C 19,3 km/h (3 Bft)
25.05.2019 13:30 18,6 C 18,1 C 18,9 C 56 % 1018,6 hPa 0,0 l/m 7,3 km/h (2 Bft) N-NW 341 15 min 0 min 0,000 mm 5,6 UV-I 754 W/m 9,6 C 18,6 C 17,7 km/h (3 Bft)
25.05.2019 13:15 18,7 C 17,6 C 18,7 C 56 % 1018,6 hPa 0,0 l/m 7,8 km/h (2 Bft) NO 38 15 min 0 min 0,000 mm 6,1 UV-I 779 W/m 9,7 C 18,7 C 16,1 km/h (3 Bft)
25.05.2019 13:00 18,0 C 17,6 C 18,0 C 60 % 1018,6 hPa 0,0 l/m 8,0 km/h (2 Bft) N-NW 346 15 min 0 min 0,432 mm 5,6 UV-I 874 W/m 10,1 C 18,0 C 17,7 km/h (3 Bft)
25.05.2019 12:45 17,8 C 17,1 C 17,8 C 61 % 1018,6 hPa 0,0 l/m 6,0 km/h (2 Bft) N-NO 22 15 min 0 min 0,000 mm 5,9 UV-I 754 W/m 10,2 C 17,8 C 16,1 km/h (3 Bft)
25.05.2019 12:30 17,1 C 16,7 C 17,2 C 66 % 1018,7 hPa 0,0 l/m 5,0 km/h (1 Bft) O-SO 103 15 min 0 min 0,000 mm 5,6 UV-I 819 W/m 10,7 C 17,1 C 14,5 km/h (3 Bft)
25.05.2019 12:15 16,8 C 16,4 C 16,8 C 64 % 1018,7 hPa 0,0 l/m 4,9 km/h (1 Bft) NO 34 15 min 0 min 0,000 mm 4,0 UV-I 656 W/m 10,0 C 16,8 C 9,7 km/h (2 Bft)
25.05.2019 12:00 16,4 C 16,2 C 16,6 C 63 % 1018,7 hPa 0,0 l/m 5,2 km/h (1 Bft) N 11 15 min 0 min 0,381 mm 3,9 UV-I 471 W/m 9,3 C 16,4 C 14,5 km/h (3 Bft)
_ Min-Zeit 05:45 05:45 05:45 11:00 11:00 - 22:30 - - - - - - - 06:00 05:15 21:00
Minimum _ 10,1 C 10,1 C 10,2 C 52 % 1016,3 hPa - 1,0 km/h (0 Bft) - - - - - - - 7,9 C 10,2 C 3,2 km/h (1 Bft)
_ Max-Zeit 11:00 11:00 11:00 04:15 12:00 12:00 14:45 - - 12:00 12:00 15:15 13:15 13:00 09:30 11:00 14:45
Maximum _ 20,1 C 19,4 C 20,1 C 88 % 1018,7 hPa 0,0 l/m 11,4 km/h
W-NW (2 Bft)
- - 15 min 0 min 0,483 mm 6,1 UV-I 874 W/m 11,5 C 20,1 C 24,1 km/h
NW (4 Bft)
Durchschnitt _ 14,9 C 14,7 C 15,1 C 70 % 1017,9 hPa #0,0 l/m 4,5 km/h (1 Bft) W-SW - #3:30 h #0 min. #1,067 mm 2,5 UV-I 295 W/m 9,2 C 14,9 C 11,6 km/h (2 Bft)